Time;durP1;ratioP1;P1;durP2;ratioP2;P2;SDS_P1;SDS_P2;PMS_P1;PMS_P2;Temp;Humidity;BMP_temperature;BMP_pressure;BME280_temperature;BME280_humidity;BME280_pressure;Samples;Min_cycle;Max_cycle;Signal;HPM_P1;HPM_P2
2020/12/27 00:00:44;;;;;;;5.43;2.90;;;3.90;99.90;;;;;;5049150;28;20029;-53
2020/12/27 00:03:09;;;;;;;9.93;3.50;;;3.90;99.90;;;;;;5047732;28;20025;-54
2020/12/27 00:05:35;;;;;;;4.35;3.15;;;3.90;99.90;;;;;;5044744;28;20387;-52
2020/12/27 00:08:00;;;;;;;6.25;3.17;;;3.90;99.90;;;;;;5028834;28;20383;-53
2020/12/27 00:10:26;;;;;;;7.00;3.05;;;3.90;99.90;;;;;;5034304;28;20033;-54
2020/12/27 00:12:52;;;;;;;3.67;2.78;;;3.90;99.90;;;;;;5048924;28;20532;-53
2020/12/27 00:15:17;;;;;;;4.97;3.03;;;3.90;99.90;;;;;;5047937;28;20029;-54
2020/12/27 00:17:45;;;;;;;8.57;3.40;;;4.00;99.90;;;;;;5047141;28;20049;-53
2020/12/27 00:20:10;;;;;;;4.82;2.85;;;3.90;99.90;;;;;;5048802;28;20371;-53
2020/12/27 00:22:36;;;;;;;4.20;3.00;;;4.00;99.90;;;;;;5036452;28;20393;-53
2020/12/27 00:25:02;;;;;;;5.03;3.05;;;4.00;99.90;;;;;;5048222;28;20029;-52
2020/12/27 00:27:28;;;;;;;7.13;4.20;;;3.90;99.90;;;;;;5047690;28;20033;-53
2020/12/27 00:29:53;;;;;;;4.35;2.85;;;3.90;99.90;;;;;;5048822;28;20114;-52
2020/12/27 00:32:19;;;;;;;4.07;2.80;;;3.90;99.90;;;;;;5047693;28;20025;-54
2020/12/27 00:34:44;;;;;;;4.40;2.95;;;3.90;99.90;;;;;;5047743;28;20106;-54
2020/12/27 00:37:10;;;;;;;6.07;2.80;;;3.80;99.90;;;;;;5048554;28;20033;-51
2020/12/27 00:39:36;;;;;;;6.18;3.45;;;3.70;99.90;;;;;;5045955;28;20029;-52
2020/12/27 00:42:02;;;;;;;4.55;3.22;;;3.70;99.90;;;;;;5028627;28;20483;-53
2020/12/27 00:44:29;;;;;;;4.60;2.83;;;3.70;99.90;;;;;;5031436;28;20468;-52
2020/12/27 00:46:55;;;;;;;6.47;2.85;;;3.70;99.90;;;;;;5041911;28;20090;-48
2020/12/27 00:49:22;;;;;;;4.63;3.08;;;3.70;99.90;;;;;;5040159;28;20433;-49
2020/12/27 00:51:50;;;;;;;7.90;2.97;;;3.60;99.90;;;;;;5045938;28;20040;-51
2020/12/27 00:54:15;;;;;;;4.85;3.42;;;3.70;99.90;;;;;;5047095;28;20444;-49
2020/12/27 00:56:41;;;;;;;4.20;2.67;;;3.60;99.90;;;;;;5047472;28;20054;-52
2020/12/27 00:59:07;;;;;;;5.50;2.97;;;3.60;99.90;;;;;;5047212;28;20029;-49
2020/12/27 01:01:33;;;;;;;5.65;2.60;;;3.60;99.90;;;;;;5042668;28;20029;-51
2020/12/27 01:03:59;;;;;;;4.30;2.90;;;3.60;99.90;;;;;;5028336;28;20040;-52
2020/12/27 01:06:26;;;;;;;4.35;2.53;;;3.50;99.90;;;;;;5027111;28;20032;-51
2020/12/27 01:08:55;;;;;;;5.05;2.72;;;3.60;99.90;;;;;;5028294;28;20031;-49
2020/12/27 01:11:21;;;;;;;8.88;3.00;;;3.50;99.90;;;;;;5044564;28;20120;-52
2020/12/27 01:13:47;;;;;;;3.45;2.75;;;3.50;99.90;;;;;;5047018;28;20061;-48
2020/12/27 01:16:14;;;;;;;4.68;3.15;;;3.50;99.90;;;;;;5023174;28;20502;-51
2020/12/27 01:18:42;;;;;;;5.65;2.78;;;3.50;99.90;;;;;;5027370;28;20112;-50
2020/12/27 01:21:08;;;;;;;5.38;2.80;;;3.60;99.90;;;;;;5032255;28;20025;-50
2020/12/27 01:23:34;;;;;;;5.10;3.28;;;3.60;99.90;;;;;;5048089;28;20497;-52
2020/12/27 01:26:00;;;;;;;5.25;3.03;;;3.60;99.90;;;;;;5047966;28;20044;-52
2020/12/27 01:28:26;;;;;;;4.65;3.00;;;3.50;99.90;;;;;;5050834;28;20497;-52
2020/12/27 01:30:52;;;;;;;4.68;3.22;;;3.60;99.90;;;;;;5051400;28;20029;-52
2020/12/27 01:33:19;;;;;;;4.72;3.28;;;3.60;99.90;;;;;;5051134;28;20037;-49
2020/12/27 01:35:45;;;;;;;4.50;2.90;;;3.60;99.90;;;;;;5050199;28;20044;-49
2020/12/27 01:38:12;;;;;;;4.50;3.17;;;3.60;99.90;;;;;;5050397;28;20029;-51
2020/12/27 01:40:39;;;;;;;5.20;2.92;;;3.50;99.90;;;;;;5044143;28;20145;-51
2020/12/27 01:43:04;;;;;;;4.03;2.72;;;3.50;99.90;;;;;;5030104;28;20018;-51
2020/12/27 01:45:30;;;;;;;6.15;3.05;;;3.50;99.90;;;;;;5031340;28;20033;-51
2020/12/27 01:47:56;;;;;;;4.72;3.00;;;3.60;99.90;;;;;;5041248;28;20029;-50
2020/12/27 01:50:23;;;;;;;3.53;2.72;;;3.50;99.90;;;;;;5050388;28;20017;-52
2020/12/27 01:52:48;;;;;;;6.00;2.70;;;3.50;99.90;;;;;;5042896;28;20068;-53
2020/12/27 01:55:15;;;;;;;6.47;3.45;;;3.50;99.90;;;;;;5048445;28;20052;-52
2020/12/27 01:57:52;;;;;;;4.70;2.72;;;3.50;99.90;;;;;;5051048;28;20176;-53
2020/12/27 02:00:19;;;;;;;5.65;3.53;;;3.50;99.90;;;;;;5051156;28;20089;-53
2020/12/27 02:02:52;;;;;;;4.38;3.05;;;3.50;99.90;;;;;;5035517;28;20056;-53
2020/12/27 02:05:17;;;;;;;5.25;3.08;;;3.50;99.90;;;;;;5030257;28;20025;-53
2020/12/27 02:07:47;;;;;;;5.53;3.25;;;3.50;99.90;;;;;;5031380;28;20428;-54
2020/12/27 02:10:13;;;;;;;4.50;3.20;;;3.50;99.90;;;;;;5030677;28;20034;-52
2020/12/27 02:12:41;;;;;;;5.07;2.72;;;3.40;99.90;;;;;;5030038;28;20045;-53
2020/12/27 02:15:10;;;;;;;4.93;3.42;;;3.40;99.90;;;;;;5029624;28;20022;-53
2020/12/27 02:17:38;;;;;;;6.97;3.60;;;3.30;99.90;;;;;;5049517;28;20111;-53
2020/12/27 02:20:10;;;;;;;5.40;3.25;;;3.30;99.90;;;;;;5036757;28;20064;-53
2020/12/27 02:22:40;;;;;;;4.05;2.75;;;3.30;99.90;;;;;;5030427;28;20430;-53
2020/12/27 02:25:05;;;;;;;3.97;2.95;;;3.30;99.90;;;;;;5042991;28;20387;-53
2020/12/27 02:27:32;;;;;;;9.93;3.30;;;3.30;99.90;;;;;;5036570;28;20029;-52
2020/12/27 02:29:58;;;;;;;6.68;3.45;;;3.30;99.90;;;;;;5050326;28;20021;-53
2020/12/27 02:32:24;;;;;;;5.10;3.45;;;3.30;99.90;;;;;;5043002;28;20032;-53
2020/12/27 02:34:49;;;;;;;6.35;3.80;;;3.30;99.90;;;;;;5050026;28;20106;-53
2020/12/27 02:37:15;;;;;;;7.28;3.60;;;3.30;99.90;;;;;;5050326;28;20063;-53
2020/12/27 02:39:41;;;;;;;6.10;3.50;;;3.30;99.90;;;;;;5048871;28;20451;-53
2020/12/27 02:42:07;;;;;;;4.70;3.25;;;3.30;99.90;;;;;;5037739;28;20103;-54
2020/12/27 02:44:50;;;;;;;6.65;3.30;;;3.20;99.90;;;;;;5049508;28;20116;-53
2020/12/27 02:47:16;;;;;;;8.65;4.00;;;3.20;99.90;;;;;;5042237;28;20029;-53
2020/12/27 02:49:42;;;;;;;6.75;3.60;;;3.20;99.90;;;;;;5036462;28;20067;-52
2020/12/27 02:52:08;;;;;;;12.48;3.97;;;3.20;99.90;;;;;;5042278;28;20476;-49
2020/12/27 02:54:33;;;;;;;6.20;3.63;;;3.20;99.90;;;;;;5043618;28;20479;-49
2020/12/27 02:56:59;;;;;;;5.53;3.38;;;3.20;99.90;;;;;;5032393;28;20040;-49
2020/12/27 02:59:24;;;;;;;6.28;3.45;;;3.20;99.90;;;;;;5037796;28;20052;-53
2020/12/27 03:01:50;;;;;;;5.78;3.50;;;3.20;99.90;;;;;;5049224;28;20048;-52
2020/12/27 03:04:16;;;;;;;5.95;3.75;;;3.20;99.90;;;;;;5048660;28;20056;-51
2020/12/27 03:06:41;;;;;;;7.18;3.50;;;3.20;99.90;;;;;;5048288;28;20059;-53
2020/12/27 03:09:07;;;;;;;5.82;3.65;;;3.20;99.90;;;;;;5050142;28;20028;-53
2020/12/27 03:11:33;;;;;;;7.97;3.20;;;3.20;99.90;;;;;;5049648;28;20112;-53
2020/12/27 03:13:58;;;;;;;9.35;3.42;;;3.20;99.90;;;;;;5049102;28;20028;-50
2020/12/27 03:16:24;;;;;;;6.45;3.38;;;3.20;99.90;;;;;;5048732;28;20482;-50
2020/12/27 03:18:50;;;;;;;4.22;2.90;;;3.30;99.90;;;;;;5050322;28;20029;-51
2020/12/27 03:21:16;;;;;;;5.50;3.15;;;3.30;99.90;;;;;;5042961;28;20041;-52
2020/12/27 03:23:42;;;;;;;5.20;3.38;;;3.30;99.90;;;;;;5028764;28;20021;-52
2020/12/27 03:26:09;;;;;;;5.63;3.75;;;3.20;99.90;;;;;;5035963;28;20032;-53
2020/12/27 03:28:34;;;;;;;7.38;3.13;;;3.20;99.90;;;;;;5049616;28;20025;-50
2020/12/27 03:31:00;;;;;;;7.10;3.85;;;3.20;99.90;;;;;;5049137;28;20067;-48
2020/12/27 03:33:25;;;;;;;5.78;3.80;;;3.10;99.90;;;;;;5033428;28;20514;-52
2020/12/27 03:35:51;;;;;;;6.13;3.22;;;3.10;99.90;;;;;;5029135;28;20033;-52
2020/12/27 03:38:17;;;;;;;6.13;2.67;;;3.10;99.90;;;;;;5030125;28;20032;-52
2020/12/27 03:40:42;;;;;;;5.65;3.15;;;3.10;99.90;;;;;;5048207;28;20025;-51
2020/12/27 03:43:08;;;;;;;3.90;2.80;;;3.20;99.90;;;;;;5049639;28;20474;-53
2020/12/27 03:45:34;;;;;;;3.78;2.72;;;3.10;99.90;;;;;;5047309;28;20071;-52
2020/12/27 03:48:00;;;;;;;4.45;3.30;;;3.10;99.90;;;;;;5049905;28;20024;-54
2020/12/27 03:50:26;;;;;;;5.50;2.95;;;3.10;99.90;;;;;;5047772;28;20025;-53
2020/12/27 03:52:51;;;;;;;4.90;2.78;;;3.10;99.90;;;;;;5028308;28;20025;-53
2020/12/27 03:55:17;;;;;;;4.82;3.17;;;3.20;99.90;;;;;;5028848;28;20079;-53
2020/12/27 03:57:43;;;;;;;4.90;2.88;;;3.10;99.90;;;;;;5028448;28;20024;-53
2020/12/27 04:00:09;;;;;;;4.53;2.53;;;3.10;99.90;;;;;;5031420;28;20021;-53
2020/12/27 04:02:35;;;;;;;5.32;3.20;;;3.10;99.90;;;;;;5037344;28;20028;-53
2020/12/27 04:05:01;;;;;;;5.13;3.05;;;3.10;99.90;;;;;;5032191;28;20028;-53
2020/12/27 04:07:31;;;;;;;3.90;2.55;;;3.10;99.90;;;;;;5042081;28;20017;-53
2020/12/27 04:09:57;;;;;;;6.13;2.80;;;3.20;99.90;;;;;;5028808;28;20025;-53
2020/12/27 04:12:22;;;;;;;5.07;2.80;;;3.10;99.90;;;;;;5038950;28;20048;-52
2020/12/27 04:14:48;;;;;;;3.95;2.50;;;3.20;99.90;;;;;;5047254;28;20079;-55
2020/12/27 04:17:14;;;;;;;4.00;2.78;;;3.20;99.90;;;;;;5028551;28;20098;-51
2020/12/27 04:19:40;;;;;;;5.38;2.63;;;3.30;99.90;;;;;;5028473;28;20107;-53
2020/12/27 04:22:05;;;;;;;5.68;2.50;;;3.40;99.90;;;;;;5026397;28;20052;-52
2020/12/27 04:24:31;;;;;;;3.38;2.58;;;3.40;99.90;;;;;;5027649;28;20180;-52
2020/12/27 04:26:57;;;;;;;3.85;2.58;;;3.30;99.90;;;;;;5028082;28;20021;-52
2020/12/27 04:29:23;;;;;;;4.88;2.70;;;3.30;99.90;;;;;;5027666;28;20093;-52
2020/12/27 04:31:52;;;;;;;4.13;2.67;;;3.20;99.90;;;;;;5038243;28;20053;-54
2020/12/27 04:34:18;;;;;;;8.35;2.15;;;3.20;99.90;;;;;;5037014;28;20087;-52
2020/12/27 04:36:44;;;;;;;3.63;2.30;;;3.20;99.90;;;;;;5027811;28;20038;-51
2020/12/27 04:39:10;;;;;;;4.20;2.40;;;3.10;99.90;;;;;;5028308;28;20104;-49
2020/12/27 04:41:37;;;;;;;2.85;2.22;;;3.20;99.90;;;;;;5046495;28;20032;-49
2020/12/27 04:44:04;;;;;;;2.65;2.20;;;3.10;99.90;;;;;;5047094;28;20021;-50
2020/12/27 04:46:30;;;;;;;4.50;2.30;;;3.20;99.90;;;;;;5038308;28;20044;-49
2020/12/27 04:48:57;;;;;;;6.28;2.33;;;3.20;99.90;;;;;;5040044;28;20024;-49
2020/12/27 04:51:25;;;;;;;3.67;2.80;;;3.20;99.90;;;;;;5040821;28;20017;-49
2020/12/27 04:53:50;;;;;;;6.15;3.15;;;3.20;99.90;;;;;;5038229;28;20482;-53
2020/12/27 04:56:19;;;;;;;3.30;2.28;;;3.20;99.90;;;;;;5047812;28;20116;-53
2020/12/27 04:58:45;;;;;;;5.47;2.72;;;3.20;99.90;;;;;;5048221;28;20075;-53
2020/12/27 05:01:10;;;;;;;3.03;2.35;;;3.20;99.90;;;;;;5038177;28;20029;-53
2020/12/27 05:03:36;;;;;;;3.90;2.45;;;3.10;99.90;;;;;;5051484;28;20625;-52
2020/12/27 05:06:01;;;;;;;2.80;2.30;;;3.10;99.90;;;;;;5031256;28;20033;-49
2020/12/27 05:08:27;;;;;;;5.28;2.15;;;3.20;99.90;;;;;;5030840;28;20030;-53
2020/12/27 05:10:53;;;;;;;2.63;1.75;;;3.30;99.90;;;;;;5041127;28;20033;-50
2020/12/27 05:13:19;;;;;;;3.10;1.98;;;3.30;99.90;;;;;;5031288;28;20083;-55
2020/12/27 05:15:45;;;;;;;5.07;1.50;;;3.40;99.90;;;;;;5033047;28;20082;-53
2020/12/27 05:18:12;;;;;;;2.33;1.70;;;3.40;99.90;;;;;;5047999;28;20044;-55
2020/12/27 05:20:43;;;;;;;2.83;2.13;;;3.40;99.90;;;;;;5030995;28;20021;-52
2020/12/27 05:23:10;;;;;;;3.60;2.28;;;3.40;99.90;;;;;;5047288;28;20031;-55
2020/12/27 05:25:39;;;;;;;2.53;1.85;;;3.40;99.90;;;;;;5051544;28;20120;-54
2020/12/27 05:28:09;;;;;;;4.55;2.40;;;3.40;99.90;;;;;;5052022;28;20029;-54
2020/12/27 05:30:35;;;;;;;3.38;1.75;;;3.30;99.90;;;;;;5049602;28;20248;-53
2020/12/27 05:33:10;;;;;;;2.83;1.65;;;3.40;99.90;;;;;;5039915;28;20442;-52
2020/12/27 05:35:35;;;;;;;2.63;1.75;;;3.40;99.90;;;;;;5030335;28;20525;-52
2020/12/27 05:38:02;;;;;;;2.63;1.63;;;3.40;99.90;;;;;;5030713;28;20057;-52
2020/12/27 05:40:34;;;;;;;2.92;1.85;;;3.30;99.90;;;;;;5031611;28;20021;-49
2020/12/27 05:43:14;;;;;;;2.42;1.60;;;3.30;99.90;;;;;;5040252;28;20082;-53
2020/12/27 05:45:40;;;;;;;3.60;2.07;;;3.30;99.90;;;;;;5050888;28;20052;-49
2020/12/27 05:48:06;;;;;;;3.08;1.75;;;3.30;99.90;;;;;;5048226;28;20075;-52
2020/12/27 05:50:37;;;;;;;3.08;1.52;;;3.30;99.90;;;;;;5031622;28;20025;-53
2020/12/27 05:53:20;;;;;;;2.92;1.50;;;3.30;99.90;;;;;;5031423;28;20018;-51
2020/12/27 05:55:48;;;;;;;1.63;1.30;;;3.30;99.90;;;;;;5038874;28;20491;-54
2020/12/27 05:58:17;;;;;;;3.05;1.35;;;3.40;99.90;;;;;;5051488;28;20025;-52
2020/12/27 06:00:48;;;;;;;1.98;1.45;;;3.40;99.90;;;;;;5041971;28;20028;-45
2020/12/27 06:03:26;;;;;;;4.00;1.10;;;3.40;99.90;;;;;;5049431;28;20029;-44
2020/12/27 06:05:55;;;;;;;3.20;1.25;;;3.40;99.90;;;;;;5050840;28;20549;-44
2020/12/27 06:08:33;;;;;;;2.53;1.58;;;3.40;99.90;;;;;;5050331;28;20025;-44
2020/12/27 06:11:05;;;;;;;2.60;1.30;;;3.50;99.90;;;;;;5043602;28;20087;-50
2020/12/27 06:13:49;;;;;;;4.22;1.05;;;3.60;99.90;;;;;;5049490;28;20503;-50
2020/12/27 06:16:24;;;;;;;2.33;1.30;;;3.60;99.90;;;;;;5049265;28;20033;-49
2020/12/27 06:19:21;;;;;;;3.50;1.00;;;3.60;99.90;;;;;;5043448;28;20097;-52
2020/12/27 06:22:01;;;;;;;2.00;1.33;;;3.60;99.90;;;;;;5041712;28;20025;-44
2020/12/27 06:24:29;;;;;;;2.80;1.05;;;3.60;99.90;;;;;;5045954;28;20017;-44
2020/12/27 06:26:57;;;;;;;1.75;1.08;;;3.60;99.90;;;;;;5038867;28;20025;-46
2020/12/27 06:29:23;;;;;;;2.15;1.13;;;3.60;99.90;;;;;;5040751;28;20147;-44
2020/12/27 06:31:50;;;;;;;1.95;1.20;;;3.50;99.90;;;;;;5048434;28;20327;-44
2020/12/27 06:34:16;;;;;;;1.17;1.00;;;3.60;99.90;;;;;;5051064;28;20033;-45
2020/12/27 06:36:42;;;;;;;3.83;0.90;;;3.60;99.90;;;;;;5050130;28;20024;-45
2020/12/27 06:39:27;;;;;;;1.13;0.95;;;3.70;99.90;;;;;;5050440;28;20482;-44
2020/12/27 06:42:10;;;;;;;1.80;1.05;;;3.60;99.90;;;;;;5049493;28;20486;-44
2020/12/27 06:44:52;;;;;;;3.45;1.02;;;3.60;99.90;;;;;;5049950;28;20021;-43
2020/12/27 06:47:39;;;;;;;1.67;1.00;;;3.60;99.90;;;;;;5040515;28;20021;-52
2020/12/27 06:50:20;;;;;;;4.28;1.27;;;3.60;99.90;;;;;;5047850;28;20087;-52
2020/12/27 06:52:47;;;;;;;1.40;1.10;;;3.70;99.90;;;;;;5029782;28;20033;-52
2020/12/27 06:55:36;;;;;;;1.17;1.00;;;3.70;99.90;;;;;;5030354;28;20037;-56
2020/12/27 06:58:21;;;;;;;1.75;1.00;;;3.80;99.90;;;;;;5037790;28;20041;-51
2020/12/27 07:00:48;;;;;;;2.00;0.88;;;3.80;99.90;;;;;;5051310;28;20044;-54
2020/12/27 07:03:22;;;;;;;4.13;1.20;;;3.90;99.90;;;;;;5039741;28;20025;-52
2020/12/27 07:05:50;;;;;;;1.10;0.95;;;3.90;99.90;;;;;;5051080;28;20021;-54
2020/12/27 07:08:41;;;;;;;1.67;1.48;;;3.80;99.90;;;;;;5047269;28;20033;-54
2020/12/27 07:11:15;;;;;;;1.05;0.88;;;3.80;99.90;;;;;;5041650;28;20083;-54
2020/12/27 07:13:45;;;;;;;1.15;0.98;;;3.80;99.90;;;;;;5051129;28;20108;-52
2020/12/27 07:16:13;;;;;;;1.80;1.13;;;3.80;99.90;;;;;;5050379;28;20032;-52
2020/12/27 07:18:45;;;;;;;1.35;1.05;;;3.90;99.90;;;;;;5051585;28;20037;-52
2020/12/27 07:21:13;;;;;;;1.58;1.00;;;3.90;99.90;;;;;;5045582;28;20655;-53
2020/12/27 07:24:04;;;;;;;2.60;1.00;;;4.00;99.90;;;;;;5030885;28;20028;-53
2020/12/27 07:26:35;;;;;;;1.27;1.00;;;4.00;99.90;;;;;;5039363;28;20041;-52
2020/12/27 07:29:07;;;;;;;2.88;1.00;;;4.10;99.90;;;;;;5034115;28;20475;-49
2020/12/27 07:31:35;;;;;;;1.00;0.80;;;4.10;99.90;;;;;;5035428;28;20029;-51
2020/12/27 07:34:01;;;;;;;1.13;0.90;;;4.20;99.90;;;;;;5042976;28;20032;-52
2020/12/27 07:36:28;;;;;;;0.60;0.60;;;4.30;99.90;;;;;;5050693;28;20558;-49
2020/12/27 07:39:11;;;;;;;2.00;1.10;;;4.30;99.90;;;;;;5050577;28;20044;-53
2020/12/27 07:41:43;;;;;;;1.00;0.90;;;4.20;99.90;;;;;;5040778;28;20032;-51
2020/12/27 07:44:14;;;;;;;1.65;0.93;;;4.20;99.90;;;;;;5049810;28;20025;-52
2020/12/27 07:46:41;;;;;;;2.22;1.08;;;4.20;99.90;;;;;;5049696;28;20047;-50
2020/12/27 07:49:08;;;;;;;1.88;0.85;;;4.20;99.90;;;;;;5034346;28;20088;-49
2020/12/27 07:51:34;;;;;;;3.25;1.00;;;4.20;99.90;;;;;;5030869;28;20044;-52
2020/12/27 07:53:59;;;;;;;2.33;0.93;;;4.20;99.90;;;;;;5037905;28;20030;-54
2020/12/27 07:56:27;;;;;;;1.58;1.20;;;4.30;99.90;;;;;;5038847;28;20763;-53
2020/12/27 07:59:03;;;;;;;0.98;0.82;;;4.30;99.90;;;;;;5038698;28;20025;-51
2020/12/27 08:01:34;;;;;;;4.68;1.00;;;4.30;99.90;;;;;;5041292;28;20025;-49
2020/12/27 08:04:08;;;;;;;1.00;0.95;;;4.30;99.90;;;;;;5038161;28;20028;-51
2020/12/27 08:06:39;;;;;;;1.25;1.15;;;4.40;99.90;;;;;;5033078;28;20021;-49
2020/12/27 08:09:10;;;;;;;2.13;1.63;;;4.40;99.90;;;;;;5031663;28;20059;-53
2020/12/27 08:11:44;;;;;;;1.48;1.17;;;4.40;99.90;;;;;;5030074;28;20073;-50
2020/12/27 08:14:12;;;;;;;1.10;1.00;;;4.30;99.90;;;;;;5032293;28;20032;-52
2020/12/27 08:16:42;;;;;;;1.00;0.70;;;4.30;99.90;;;;;;5028036;28;20399;-53
2020/12/27 08:19:13;;;;;;;1.33;0.82;;;4.30;99.90;;;;;;5035946;28;20119;-54
2020/12/27 08:21:41;;;;;;;13.60;1.10;;;4.40;99.90;;;;;;5030210;28;20059;-53
2020/12/27 08:24:11;;;;;;;1.58;0.90;;;4.40;99.90;;;;;;5033155;28;20108;-50
2020/12/27 08:26:41;;;;;;;3.97;1.27;;;4.40;99.90;;;;;;5029841;28;20104;-52
2020/12/27 08:29:14;;;;;;;1.88;0.77;;;4.50;99.90;;;;;;5029455;28;20408;-54
2020/12/27 08:31:41;;;;;;;0.75;0.70;;;4.40;99.90;;;;;;5029508;28;20568;-53
2020/12/27 08:34:17;;;;;;;1.52;0.90;;;4.40;99.90;;;;;;5029960;28;20143;-53
2020/12/27 08:36:46;;;;;;;2.00;1.15;;;4.40;99.90;;;;;;5029401;28;20494;-54
2020/12/27 08:39:20;;;;;;;1.98;1.23;;;4.30;99.90;;;;;;5030446;28;20108;-50
2020/12/27 08:42:03;;;;;;;3.08;1.67;;;4.40;99.90;;;;;;5034795;28;20030;-54
2020/12/27 08:44:47;;;;;;;1.65;0.88;;;4.30;99.90;;;;;;5029443;28;20490;-54
2020/12/27 08:47:29;;;;;;;2.30;1.20;;;4.40;99.90;;;;;;5044704;28;20024;-55
2020/12/27 08:50:09;;;;;;;1.63;1.00;;;4.50;99.90;;;;;;5046092;28;20092;-54
2020/12/27 08:52:35;;;;;;;1.67;1.00;;;4.50;99.90;;;;;;5029485;28;20025;-53
2020/12/27 08:55:04;;;;;;;1.73;1.10;;;4.50;99.90;;;;;;5034640;28;20360;-51
2020/12/27 08:57:31;;;;;;;1.58;1.20;;;4.60;99.90;;;;;;5029738;28;20033;-54
2020/12/27 09:00:05;;;;;;;2.95;1.10;;;4.60;99.90;;;;;;5033557;28;20029;-54
2020/12/27 09:02:30;;;;;;;1.80;1.40;;;4.60;99.90;;;;;;5039491;28;20112;-53
2020/12/27 09:05:04;;;;;;;1.95;1.60;;;4.60;99.90;;;;;;5048665;28;20021;-53
2020/12/27 09:07:41;;;;;;;1.77;1.30;;;4.60;99.90;;;;;;5032250;28;20025;-50
2020/12/27 09:10:21;;;;;;;1.75;1.08;;;4.70;99.90;;;;;;5029192;28;20623;-50
2020/12/27 09:13:12;;;;;;;1.92;1.38;;;4.70;99.90;;;;;;5031273;28;20037;-51
2020/12/27 09:15:45;;;;;;;;;;;4.80;99.90;;;;;;5033456;28;20029;-52
2020/12/27 09:18:16;;;;;;;2.42;1.38;;;4.90;99.90;;;;;;5029100;28;20321;-53
2020/12/27 09:20:42;;;;;;;;;;;4.90;99.90;;;;;;5036468;28;20025;-54
2020/12/27 09:23:19;;;;;;;3.03;2.00;;;4.90;99.90;;;;;;5030582;28;19916;-50
2020/12/27 09:25:47;;;;;;;5.78;2.50;;;4.80;99.90;;;;;;5027210;28;20025;-53
2020/12/27 09:28:20;;;;;;;3.28;1.60;;;4.70;99.90;;;;;;5023291;28;20033;-50
2020/12/27 09:31:07;;;;;;;2.47;2.10;;;4.70;99.90;;;;;;5049163;28;20036;-53
2020/12/27 09:33:42;;;;;;;5.32;2.03;;;4.70;99.90;;;;;;5042161;28;20097;-50
2020/12/27 09:36:09;;;;;;;2.10;1.55;;;4.70;99.90;;;;;;5029229;28;20083;-49
2020/12/27 09:38:46;;;;;;;3.00;1.70;;;4.80;99.90;;;;;;5036411;28;20037;-52
2020/12/27 09:41:16;;;;;;;2.63;2.00;;;4.90;99.90;;;;;;5029441;28;20040;-53
2020/12/27 09:43:59;;;;;;;2.17;1.65;;;4.90;99.90;;;;;;5034044;28;20028;-51
2020/12/27 09:46:41;;;;;;;2.35;1.30;;;4.90;99.90;;;;;;5037858;28;20029;-49
2020/12/27 09:49:34;;;;;;;2.17;1.60;;;5.00;99.90;;;;;;5031479;28;20071;-54
2020/12/27 09:52:13;;;;;;;3.47;2.17;;;5.00;99.90;;;;;;5044853;28;20032;-52
2020/12/27 09:54:43;;;;;;;3.60;1.77;;;4.90;99.90;;;;;;5033401;28;20039;-52
2020/12/27 09:57:12;;;;;;;5.40;2.50;;;4.70;99.90;;;;;;5043593;28;20368;-51
2020/12/27 09:59:38;;;;;;;3.65;2.47;;;4.70;99.90;;;;;;5051529;28;20299;-50
2020/12/27 10:02:04;;;;;;;5.25;2.58;;;4.60;99.90;;;;;;5042901;28;20315;-53
2020/12/27 10:04:33;;;;;;;3.85;2.65;;;4.40;99.90;;;;;;5051552;28;20491;-52
2020/12/27 10:06:59;;;;;;;6.10;2.63;;;4.30;99.90;;;;;;5038153;28;20032;-51
2020/12/27 10:09:25;;;;;;;4.35;2.97;;;4.30;99.90;;;;;;5049817;28;20459;-53
2020/12/27 10:11:50;;;;;;;3.80;2.65;;;4.30;99.90;;;;;;5051136;28;20057;-54
2020/12/27 10:14:16;;;;;;;5.65;2.53;;;4.40;99.90;;;;;;5039409;28;20032;-53
2020/12/27 10:16:42;;;;;;;6.47;2.75;;;4.40;99.90;;;;;;5051402;28;20474;-54
2020/12/27 10:19:07;;;;;;;4.68;2.85;;;4.50;99.90;;;;;;5045753;28;20026;-54
2020/12/27 10:21:33;;;;;;;7.57;2.83;;;4.40;99.90;;;;;;5032547;28;20029;-48
2020/12/27 10:23:58;;;;;;;4.35;2.65;;;4.30;99.90;;;;;;5035893;28;20029;-47
2020/12/27 10:26:24;;;;;;;5.35;3.22;;;4.30;99.90;;;;;;5044648;28;20029;-52
2020/12/27 10:28:50;;;;;;;4.90;2.55;;;4.30;99.90;;;;;;5040032;28;20087;-52
2020/12/27 10:31:15;;;;;;;4.47;2.63;;;4.20;99.90;;;;;;5030546;28;20403;-47
2020/12/27 10:33:41;;;;;;;5.95;2.85;;;4.10;99.90;;;;;;5031347;28;20033;-51
2020/12/27 10:36:07;;;;;;;4.20;2.63;;;4.10;99.90;;;;;;5031076;28;20026;-52
2020/12/27 10:38:33;;;;;;;7.35;2.90;;;4.00;99.90;;;;;;5030194;28;20057;-52
2020/12/27 10:41:01;;;;;;;3.10;2.50;;;4.00;99.90;;;;;;5042633;28;20626;-48
2020/12/27 10:43:26;;;;;;;4.45;2.70;;;4.00;99.90;;;;;;5043677;28;20036;-48
2020/12/27 10:46:01;;;;;;;3.97;2.72;;;4.00;99.90;;;;;;5045601;28;20026;-50
2020/12/27 10:48:27;;;;;;;3.55;2.72;;;4.00;99.90;;;;;;5030383;28;20025;-51
2020/12/27 10:50:53;;;;;;;5.38;2.95;;;3.90;99.90;;;;;;5030312;28;20386;-50
2020/12/27 10:53:19;;;;;;;3.95;2.75;;;3.90;99.90;;;;;;5039603;28;20040;-47
2020/12/27 10:55:46;;;;;;;3.17;2.50;;;3.90;99.90;;;;;;5049121;28;20302;-48
2020/12/27 10:58:12;;;;;;;2.95;2.45;;;4.00;99.90;;;;;;5048876;28;20593;-47
2020/12/27 11:00:38;;;;;;;2.70;1.90;;;4.00;99.90;;;;;;5049237;28;20045;-50
2020/12/27 11:03:04;;;;;;;5.70;2.58;;;4.10;99.90;;;;;;5048805;28;20047;-52
2020/12/27 11:05:30;;;;;;;4.63;2.42;;;4.10;99.90;;;;;;5047583;28;20021;-48
2020/12/27 11:07:55;;;;;;;2.50;2.05;;;4.10;99.90;;;;;;5034699;28;20233;-49
2020/12/27 11:10:21;;;;;;;3.05;2.20;;;4.10;99.90;;;;;;5034059;28;20033;-48
2020/12/27 11:12:46;;;;;;;4.53;2.20;;;4.20;99.90;;;;;;5036700;28;20053;-48
2020/12/27 11:15:14;;;;;;;3.90;2.28;;;4.20;99.90;;;;;;5049229;28;20068;-48
2020/12/27 11:17:40;;;;;;;5.60;2.63;;;4.20;99.90;;;;;;5043480;28;20112;-51
2020/12/27 11:20:05;;;;;;;3.55;2.20;;;4.10;99.90;;;;;;5029622;28;20455;-47
2020/12/27 11:22:31;;;;;;;3.92;2.50;;;4.10;99.90;;;;;;5028858;28;20080;-49
2020/12/27 11:24:57;;;;;;;4.47;2.47;;;4.10;99.90;;;;;;5029512;28;20022;-52
2020/12/27 11:27:22;;;;;;;6.75;2.50;;;4.20;99.90;;;;;;5027844;28;20024;-51
2020/12/27 11:29:49;;;;;;;7.30;2.20;;;4.20;99.90;;;;;;5044846;28;20500;-52
2020/12/27 11:32:14;;;;;;;2.83;2.20;;;4.30;99.90;;;;;;5030604;28;20033;-49
2020/12/27 11:34:39;;;;;;;4.13;2.10;;;4.30;99.90;;;;;;5040568;28;20343;-48
2020/12/27 11:37:05;;;;;;;5.38;2.53;;;4.20;99.90;;;;;;5048555;28;20100;-50
2020/12/27 11:39:31;;;;;;;3.45;1.92;;;4.20;99.90;;;;;;5049546;28;20103;-52
2020/12/27 11:41:56;;;;;;;5.72;3.78;;;4.20;99.90;;;;;;5028334;28;20025;-48
2020/12/27 11:44:22;;;;;;;2.97;2.15;;;4.40;99.90;;;;;;5027705;28;20029;-49
2020/12/27 11:46:48;;;;;;;4.63;2.40;;;4.50;99.90;;;;;;5040515;28;20033;-51
2020/12/27 11:49:13;;;;;;;4.82;2.33;;;4.50;99.90;;;;;;5047784;28;20075;-51
2020/12/27 11:51:39;;;;;;;4.38;2.63;;;4.50;99.90;;;;;;5037606;28;20033;-52
2020/12/27 11:54:05;;;;;;;4.82;2.50;;;4.40;99.90;;;;;;5027808;28;20029;-51
2020/12/27 11:56:31;;;;;;;2.97;2.30;;;4.50;99.90;;;;;;5026393;28;20029;-49
2020/12/27 11:58:56;;;;;;;3.00;2.10;;;4.40;99.90;;;;;;5028942;28;20033;-48
2020/12/27 12:01:22;;;;;;;3.20;2.20;;;4.40;99.90;;;;;;5038497;28;20260;-48
2020/12/27 12:03:47;;;;;;;3.33;2.30;;;4.40;99.90;;;;;;5039583;28;20017;-51
2020/12/27 12:06:20;;;;;;;2.97;2.17;;;4.30;99.90;;;;;;5037822;28;20686;-48
2020/12/27 12:08:47;;;;;;;3.60;2.25;;;4.30;99.90;;;;;;5030950;28;20057;-51
2020/12/27 12:11:12;;;;;;;3.40;2.28;;;4.20;99.90;;;;;;5038463;28;20033;-49
2020/12/27 12:13:37;;;;;;;4.63;2.67;;;4.20;99.90;;;;;;5030734;28;20369;-48
2020/12/27 12:16:03;;;;;;;3.30;2.25;;;4.30;99.90;;;;;;5036282;28;20032;-48
2020/12/27 12:18:29;;;;;;;5.30;2.45;;;4.20;99.90;;;;;;5037006;28;20032;-52
2020/12/27 12:20:55;;;;;;;4.15;2.70;;;4.20;99.90;;;;;;5038375;28;20132;-52
2020/12/27 12:23:21;;;;;;;2.75;1.90;;;4.30;99.90;;;;;;5041826;28;20029;-48
2020/12/27 12:25:47;;;;;;;3.63;2.47;;;4.30;99.90;;;;;;5034479;28;20027;-50
2020/12/27 12:28:14;;;;;;;4.13;2.08;;;4.30;99.90;;;;;;5030991;28;20025;-51
2020/12/27 12:30:43;;;;;;;4.22;2.05;;;4.30;99.90;;;;;;5039507;28;20017;-51
2020/12/27 12:33:09;;;;;;;2.80;2.08;;;4.30;99.90;;;;;;5027780;28;20043;-51
2020/12/27 12:35:35;;;;;;;2.92;2.08;;;4.40;99.90;;;;;;5028240;28;20116;-51
2020/12/27 12:38:09;;;;;;;5.55;2.20;;;4.40;99.90;;;;;;5047864;28;20025;-48
2020/12/27 12:40:35;;;;;;;5.07;2.33;;;4.40;99.90;;;;;;5047760;28;20036;-49
2020/12/27 12:43:04;;;;;;;3.20;2.15;;;4.40;99.90;;;;;;5031908;28;20391;-49
2020/12/27 12:45:30;;;;;;;4.80;2.58;;;4.30;99.90;;;;;;5036066;28;20060;-48
2020/12/27 12:47:55;;;;;;;3.90;2.38;;;4.30;99.90;;;;;;5047679;28;20040;-47
2020/12/27 12:50:22;;;;;;;6.68;2.28;;;4.30;99.90;;;;;;5046811;28;20112;-51
2020/12/27 12:52:48;;;;;;;4.18;2.20;;;4.20;99.90;;;;;;5048030;28;20029;-51
2020/12/27 12:55:16;;;;;;;2.95;2.25;;;4.30;99.90;;;;;;5046531;28;20029;-52
2020/12/27 12:57:42;;;;;;;3.40;2.40;;;4.40;99.90;;;;;;5047825;28;20106;-50
2020/12/27 13:00:08;;;;;;;4.63;2.20;;;4.30;99.90;;;;;;5040444;28;20038;-47
2020/12/27 13:02:33;;;;;;;2.80;2.42;;;4.30;99.90;;;;;;5038165;28;20061;-49
2020/12/27 13:04:59;;;;;;;3.95;2.97;;;4.30;99.90;;;;;;5043627;28;20533;-47